ROMMA est une association bénévole à but non lucratif. Votre soutien est indispensable : ADHERER à ROMMA ou FAIRE un DON

Taninges - (74, Haute-Savoie)

Vallée du Giffre (635 m)   Longitude: 06° 35' 38" E   Latitude: 46° 06' 21" N Station romma n°98
 

Détail journalier du     <<     >>

Température Precipitation Humidité Pression Vent Dir Rafale Dir. rafale Ensol.
Heure (°C) (mm) (%) (hPa) (km/h) (km/h) (min)
01:00 8.508510173N15NO0
02:00 7.308610184NE15NNE0
03:00 6.409110182N10NNE0
04:00 5.409210183N11NE0
05:00 4.609410181ENE6OSO0
06:00 4.4096101805NNE0
07:00 3.809610181SE8SE0
08:00 4.309610181NE5O0
09:00 4.309610191E5E0
10:00 5.209710181O6OSO5
11:00 9.109410181SO6OSO60
12:00 11.108110175SO13OSO60
13:00 12.107510179OSO19SO60
14:00 13.106910168SO19SO60
15:00 14.106610169SO21OSO60
16:00 14.506810157SO16OSO60
17:00 13.306810159OSO21OSO40
18:00 13.106810166OSO16OSO40
19:00 11.207810172OSO6OSO10
20:00 10.008410171ENE6NE0
21:00 9.308810181ESE5SE0
22:00 9.109010171E6SO0
23:00 8.609010162ESE11O0
minuit 7.309310161SSE6SO0

Graphique du 03-10-2019

 

Serveur OMMA